sensor_id;sensor_type;location;lat;lon;timestamp;P1;durP1;ratioP1;P2;durP2;ratioP2
20334;SDS011;10325;51.468;5.804;2023-02-07T00:00:16;5.37;;;3.00;;
20334;SDS011;10325;51.468;5.804;2023-02-07T00:02:50;6.30;;;2.90;;
20334;SDS011;10325;51.468;5.804;2023-02-07T00:05:24;4.90;;;3.10;;
20334;SDS011;10325;51.468;5.804;2023-02-07T00:07:57;4.67;;;2.90;;
20334;SDS011;10325;51.468;5.804;2023-02-07T00:10:29;4.60;;;2.73;;
20334;SDS011;10325;51.468;5.804;2023-02-07T00:13:02;4.67;;;3.23;;
20334;SDS011;10325;51.468;5.804;2023-02-07T00:15:51;5.60;;;3.10;;
20334;SDS011;10325;51.468;5.804;2023-02-07T00:18:26;4.50;;;2.83;;
20334;SDS011;10325;51.468;5.804;2023-02-07T00:21:05;5.37;;;3.20;;
20334;SDS011;10325;51.468;5.804;2023-02-07T00:23:38;5.07;;;3.00;;
20334;SDS011;10325;51.468;5.804;2023-02-07T00:26:07;4.67;;;2.60;;
20334;SDS011;10325;51.468;5.804;2023-02-07T00:28:38;4.70;;;2.90;;
20334;SDS011;10325;51.468;5.804;2023-02-07T00:31:17;3.57;;;3.17;;
20334;SDS011;10325;51.468;5.804;2023-02-07T00:33:48;4.20;;;2.87;;
20334;SDS011;10325;51.468;5.804;2023-02-07T00:36:21;5.20;;;2.70;;
20334;SDS011;10325;51.468;5.804;2023-02-07T00:38:58;6.00;;;2.93;;
20334;SDS011;10325;51.468;5.804;2023-02-07T00:41:28;3.83;;;2.50;;
20334;SDS011;10325;51.468;5.804;2023-02-07T00:43:59;5.43;;;2.97;;
20334;SDS011;10325;51.468;5.804;2023-02-07T00:46:30;3.47;;;2.30;;
20334;SDS011;10325;51.468;5.804;2023-02-07T00:49:05;6.47;;;3.27;;
20334;SDS011;10325;51.468;5.804;2023-02-07T00:51:37;7.53;;;3.03;;
20334;SDS011;10325;51.468;5.804;2023-02-07T00:54:07;5.50;;;2.97;;
20334;SDS011;10325;51.468;5.804;2023-02-07T00:56:36;4.17;;;2.80;;
20334;SDS011;10325;51.468;5.804;2023-02-07T00:59:11;3.47;;;2.20;;
20334;SDS011;10325;51.468;5.804;2023-02-07T01:01:41;3.50;;;2.87;;
20334;SDS011;10325;51.468;5.804;2023-02-07T01:04:11;7.97;;;3.00;;
20334;SDS011;10325;51.468;5.804;2023-02-07T01:06:43;4.60;;;2.87;;
20334;SDS011;10325;51.468;5.804;2023-02-07T01:09:16;3.47;;;2.37;;
20334;SDS011;10325;51.468;5.804;2023-02-07T01:11:50;6.30;;;3.00;;
20334;SDS011;10325;51.468;5.804;2023-02-07T01:14:22;4.57;;;2.73;;
20334;SDS011;10325;51.468;5.804;2023-02-07T01:16:54;5.80;;;2.87;;
20334;SDS011;10325;51.468;5.804;2023-02-07T01:19:30;6.67;;;3.10;;
20334;SDS011;10325;51.468;5.804;2023-02-07T01:22:04;4.23;;;2.63;;
20334;SDS011;10325;51.468;5.804;2023-02-07T01:24:37;6.70;;;2.90;;
20334;SDS011;10325;51.468;5.804;2023-02-07T01:27:09;3.67;;;2.70;;
20334;SDS011;10325;51.468;5.804;2023-02-07T01:29:39;4.47;;;2.67;;
20334;SDS011;10325;51.468;5.804;2023-02-07T01:32:09;5.70;;;3.10;;
20334;SDS011;10325;51.468;5.804;2023-02-07T01:34:46;7.03;;;2.90;;
20334;SDS011;10325;51.468;5.804;2023-02-07T01:37:15;4.83;;;2.73;;
20334;SDS011;10325;51.468;5.804;2023-02-07T01:39:47;4.87;;;2.47;;
20334;SDS011;10325;51.468;5.804;2023-02-07T01:42:18;4.63;;;2.90;;
20334;SDS011;10325;51.468;5.804;2023-02-07T01:44:58;4.70;;;2.90;;
20334;SDS011;10325;51.468;5.804;2023-02-07T01:47:30;5.00;;;2.67;;
20334;SDS011;10325;51.468;5.804;2023-02-07T01:50:03;5.10;;;2.63;;
20334;SDS011;10325;51.468;5.804;2023-02-07T01:52:36;4.70;;;2.63;;
20334;SDS011;10325;51.468;5.804;2023-02-07T01:55:08;4.77;;;2.87;;
20334;SDS011;10325;51.468;5.804;2023-02-07T01:57:39;4.63;;;2.83;;
20334;SDS011;10325;51.468;5.804;2023-02-07T02:00:09;3.67;;;2.80;;
20334;SDS011;10325;51.468;5.804;2023-02-07T02:02:42;4.97;;;2.70;;
20334;SDS011;10325;51.468;5.804;2023-02-07T02:05:14;4.83;;;2.80;;
20334;SDS011;10325;51.468;5.804;2023-02-07T02:07:46;3.37;;;2.40;;
20334;SDS011;10325;51.468;5.804;2023-02-07T02:10:19;4.90;;;3.00;;
20334;SDS011;10325;51.468;5.804;2023-02-07T02:15:29;4.60;;;2.50;;
20334;SDS011;10325;51.468;5.804;2023-02-07T02:43:07;4.03;;;2.67;;
20334;SDS011;10325;51.468;5.804;2023-02-07T02:46:13;4.63;;;2.60;;
20334;SDS011;10325;51.468;5.804;2023-02-07T02:48:39;5.27;;;2.80;;
20334;SDS011;10325;51.468;5.804;2023-02-07T02:51:12;6.10;;;2.97;;
20334;SDS011;10325;51.468;5.804;2023-02-07T02:53:54;5.03;;;2.83;;
20334;SDS011;10325;51.468;5.804;2023-02-07T03:07:32;4.00;;;2.90;;
20334;SDS011;10325;51.468;5.804;2023-02-07T03:18:39;5.83;;;3.20;;
20334;SDS011;10325;51.468;5.804;2023-02-07T03:21:27;5.70;;;2.90;;
20334;SDS011;10325;51.468;5.804;2023-02-07T03:23:59;4.63;;;2.87;;
20334;SDS011;10325;51.468;5.804;2023-02-07T03:26:28;5.07;;;3.37;;
20334;SDS011;10325;51.468;5.804;2023-02-07T03:29:01;4.87;;;3.10;;
20334;SDS011;10325;51.468;5.804;2023-02-07T03:31:35;6.63;;;3.70;;
20334;SDS011;10325;51.468;5.804;2023-02-07T03:34:14;7.37;;;2.87;;
20334;SDS011;10325;51.468;5.804;2023-02-07T03:39:24;4.90;;;3.10;;
20334;SDS011;10325;51.468;5.804;2023-02-07T03:41:58;4.30;;;3.43;;
20334;SDS011;10325;51.468;5.804;2023-02-07T03:44:28;5.23;;;3.23;;
20334;SDS011;10325;51.468;5.804;2023-02-07T03:47:27;4.63;;;3.23;;
20334;SDS011;10325;51.468;5.804;2023-02-07T03:49:56;4.37;;;3.07;;
20334;SDS011;10325;51.468;5.804;2023-02-07T03:52:28;7.30;;;3.70;;
20334;SDS011;10325;51.468;5.804;2023-02-07T03:54:58;5.50;;;3.33;;
20334;SDS011;10325;51.468;5.804;2023-02-07T03:57:29;4.53;;;3.50;;
20334;SDS011;10325;51.468;5.804;2023-02-07T04:00:03;4.07;;;3.00;;
20334;SDS011;10325;51.468;5.804;2023-02-07T04:02:36;6.80;;;3.43;;
20334;SDS011;10325;51.468;5.804;2023-02-07T04:05:09;4.37;;;3.43;;
20334;SDS011;10325;51.468;5.804;2023-02-07T04:07:40;5.50;;;3.60;;
20334;SDS011;10325;51.468;5.804;2023-02-07T04:10:09;4.23;;;3.30;;
20334;SDS011;10325;51.468;5.804;2023-02-07T04:12:41;3.50;;;3.10;;
20334;SDS011;10325;51.468;5.804;2023-02-07T04:15:11;4.10;;;3.33;;
20334;SDS011;10325;51.468;5.804;2023-02-07T04:17:43;4.00;;;3.20;;
20334;SDS011;10325;51.468;5.804;2023-02-07T04:20:14;4.93;;;3.73;;
20334;SDS011;10325;51.468;5.804;2023-02-07T04:22:42;3.37;;;3.03;;
20334;SDS011;10325;51.468;5.804;2023-02-07T04:25:14;3.93;;;3.50;;
20334;SDS011;10325;51.468;5.804;2023-02-07T04:27:52;5.33;;;3.53;;
20334;SDS011;10325;51.468;5.804;2023-02-07T04:30:19;3.73;;;3.20;;
20334;SDS011;10325;51.468;5.804;2023-02-07T04:32:51;3.97;;;2.77;;
20334;SDS011;10325;51.468;5.804;2023-02-07T04:35:22;5.63;;;3.07;;
20334;SDS011;10325;51.468;5.804;2023-02-07T04:37:54;5.77;;;3.73;;
20334;SDS011;10325;51.468;5.804;2023-02-07T04:40:25;5.30;;;3.60;;
20334;SDS011;10325;51.468;5.804;2023-02-07T04:42:56;4.23;;;3.50;;
20334;SDS011;10325;51.468;5.804;2023-02-07T04:45:24;8.10;;;4.10;;
20334;SDS011;10325;51.468;5.804;2023-02-07T04:47:55;4.97;;;3.90;;
20334;SDS011;10325;51.468;5.804;2023-02-07T04:50:24;4.70;;;3.87;;
20334;SDS011;10325;51.468;5.804;2023-02-07T04:52:52;5.17;;;3.27;;
20334;SDS011;10325;51.468;5.804;2023-02-07T04:55:24;7.00;;;4.33;;
20334;SDS011;10325;51.468;5.804;2023-02-07T04:57:54;5.57;;;3.30;;
20334;SDS011;10325;51.468;5.804;2023-02-07T05:00:23;4.60;;;3.33;;
20334;SDS011;10325;51.468;5.804;2023-02-07T05:02:52;4.33;;;3.33;;
20334;SDS011;10325;51.468;5.804;2023-02-07T05:05:27;6.00;;;4.03;;
20334;SDS011;10325;51.468;5.804;2023-02-07T05:07:57;5.47;;;3.77;;
20334;SDS011;10325;51.468;5.804;2023-02-07T05:10:26;3.40;;;2.97;;
20334;SDS011;10325;51.468;5.804;2023-02-07T05:13:00;4.37;;;3.33;;
20334;SDS011;10325;51.468;5.804;2023-02-07T05:15:30;7.03;;;3.87;;
20334;SDS011;10325;51.468;5.804;2023-02-07T05:18:02;5.83;;;3.60;;
20334;SDS011;10325;51.468;5.804;2023-02-07T05:20:33;9.13;;;3.87;;
20334;SDS011;10325;51.468;5.804;2023-02-07T05:23:01;3.97;;;3.13;;
20334;SDS011;10325;51.468;5.804;2023-02-07T05:25:29;4.23;;;3.37;;
20334;SDS011;10325;51.468;5.804;2023-02-07T05:28:00;3.63;;;3.33;;
20334;SDS011;10325;51.468;5.804;2023-02-07T05:30:29;5.50;;;3.70;;
20334;SDS011;10325;51.468;5.804;2023-02-07T05:32:58;4.97;;;3.60;;
20334;SDS011;10325;51.468;5.804;2023-02-07T05:35:35;4.20;;;3.53;;
20334;SDS011;10325;51.468;5.804;2023-02-07T05:38:07;3.83;;;3.50;;
20334;SDS011;10325;51.468;5.804;2023-02-07T05:40:37;3.93;;;3.47;;
20334;SDS011;10325;51.468;5.804;2023-02-07T05:43:09;6.10;;;3.77;;
20334;SDS011;10325;51.468;5.804;2023-02-07T05:45:38;6.77;;;3.60;;
20334;SDS011;10325;51.468;5.804;2023-02-07T05:48:11;3.57;;;3.23;;
20334;SDS011;10325;51.468;5.804;2023-02-07T05:50:41;3.87;;;3.47;;
20334;SDS011;10325;51.468;5.804;2023-02-07T05:53:11;4.10;;;3.50;;
20334;SDS011;10325;51.468;5.804;2023-02-07T05:55:40;5.63;;;4.73;;
20334;SDS011;10325;51.468;5.804;2023-02-07T05:58:08;4.50;;;3.53;;
20334;SDS011;10325;51.468;5.804;2023-02-07T06:00:38;4.53;;;4.13;;
20334;SDS011;10325;51.468;5.804;2023-02-07T06:03:07;4.43;;;3.53;;
20334;SDS011;10325;51.468;5.804;2023-02-07T06:05:38;4.63;;;4.20;;
20334;SDS011;10325;51.468;5.804;2023-02-07T06:08:10;4.80;;;4.10;;
20334;SDS011;10325;51.468;5.804;2023-02-07T06:10:42;6.83;;;4.13;;
20334;SDS011;10325;51.468;5.804;2023-02-07T06:13:12;4.67;;;3.30;;
20334;SDS011;10325;51.468;5.804;2023-02-07T06:15:41;6.20;;;4.30;;
20334;SDS011;10325;51.468;5.804;2023-02-07T06:18:12;5.63;;;4.77;;
20334;SDS011;10325;51.468;5.804;2023-02-07T06:20:44;6.27;;;4.17;;
20334;SDS011;10325;51.468;5.804;2023-02-07T06:23:13;6.17;;;3.90;;
20334;SDS011;10325;51.468;5.804;2023-02-07T06:25:45;4.93;;;4.00;;
20334;SDS011;10325;51.468;5.804;2023-02-07T06:28:14;6.20;;;4.43;;
20334;SDS011;10325;51.468;5.804;2023-02-07T06:30:44;7.23;;;4.53;;
20334;SDS011;10325;51.468;5.804;2023-02-07T06:33:17;6.57;;;4.60;;
20334;SDS011;10325;51.468;5.804;2023-02-07T06:35:49;5.00;;;4.27;;
20334;SDS011;10325;51.468;5.804;2023-02-07T06:38:17;7.07;;;4.83;;
20334;SDS011;10325;51.468;5.804;2023-02-07T06:40:48;5.77;;;4.17;;
20334;SDS011;10325;51.468;5.804;2023-02-07T06:43:19;5.67;;;4.60;;
20334;SDS011;10325;51.468;5.804;2023-02-07T06:45:51;7.03;;;5.37;;
20334;SDS011;10325;51.468;5.804;2023-02-07T06:48:19;6.10;;;4.70;;
20334;SDS011;10325;51.468;5.804;2023-02-07T06:50:50;5.80;;;4.47;;
20334;SDS011;10325;51.468;5.804;2023-02-07T06:53:24;5.07;;;4.50;;
20334;SDS011;10325;51.468;5.804;2023-02-07T06:55:56;7.77;;;4.73;;
20334;SDS011;10325;51.468;5.804;2023-02-07T06:58:35;87.43;;;19.73;;
20334;SDS011;10325;51.468;5.804;2023-02-07T07:01:06;78.30;;;19.83;;
20334;SDS011;10325;51.468;5.804;2023-02-07T07:03:35;64.43;;;17.20;;
20334;SDS011;10325;51.468;5.804;2023-02-07T07:06:06;58.20;;;17.87;;
20334;SDS011;10325;51.468;5.804;2023-02-07T07:08:37;56.83;;;16.77;;
20334;SDS011;10325;51.468;5.804;2023-02-07T07:11:09;51.60;;;15.27;;
20334;SDS011;10325;51.468;5.804;2023-02-07T07:13:41;53.00;;;14.97;;
20334;SDS011;10325;51.468;5.804;2023-02-07T07:16:09;43.27;;;13.37;;
20334;SDS011;10325;51.468;5.804;2023-02-07T07:18:41;38.83;;;12.73;;
20334;SDS011;10325;51.468;5.804;2023-02-07T07:21:13;38.00;;;12.63;;
20334;SDS011;10325;51.468;5.804;2023-02-07T07:23:46;30.63;;;11.17;;
20334;SDS011;10325;51.468;5.804;2023-02-07T07:26:16;34.37;;;11.13;;
20334;SDS011;10325;51.468;5.804;2023-02-07T07:28:47;32.00;;;10.93;;
20334;SDS011;10325;51.468;5.804;2023-02-07T07:31:15;25.80;;;11.03;;
20334;SDS011;10325;51.468;5.804;2023-02-07T07:33:47;21.93;;;9.30;;
20334;SDS011;10325;51.468;5.804;2023-02-07T07:36:17;23.47;;;9.43;;
20334;SDS011;10325;51.468;5.804;2023-02-07T07:39:00;18.67;;;8.37;;
20334;SDS011;10325;51.468;5.804;2023-02-07T07:41:34;19.43;;;8.57;;
20334;SDS011;10325;51.468;5.804;2023-02-07T07:44:08;22.47;;;9.00;;
20334;SDS011;10325;51.468;5.804;2023-02-07T07:46:37;17.33;;;9.30;;
20334;SDS011;10325;51.468;5.804;2023-02-07T07:49:08;18.63;;;8.50;;
20334;SDS011;10325;51.468;5.804;2023-02-07T07:51:35;22.80;;;8.20;;
20334;SDS011;10325;51.468;5.804;2023-02-07T07:54:05;20.57;;;7.93;;
20334;SDS011;10325;51.468;5.804;2023-02-07T07:56:34;13.60;;;7.43;;
20334;SDS011;10325;51.468;5.804;2023-02-07T07:59:04;15.63;;;8.00;;
20334;SDS011;10325;51.468;5.804;2023-02-07T08:01:50;15.27;;;7.43;;
20334;SDS011;10325;51.468;5.804;2023-02-07T08:04:22;11.73;;;6.70;;
20334;SDS011;10325;51.468;5.804;2023-02-07T08:06:56;12.67;;;6.97;;
20334;SDS011;10325;51.468;5.804;2023-02-07T08:09:29;13.53;;;6.77;;
20334;SDS011;10325;51.468;5.804;2023-02-07T08:11:57;12.13;;;6.63;;
20334;SDS011;10325;51.468;5.804;2023-02-07T08:14:27;14.27;;;6.77;;
20334;SDS011;10325;51.468;5.804;2023-02-07T08:16:55;12.87;;;6.40;;
20334;SDS011;10325;51.468;5.804;2023-02-07T08:19:23;12.33;;;6.10;;
20334;SDS011;10325;51.468;5.804;2023-02-07T08:21:53;12.70;;;6.83;;
20334;SDS011;10325;51.468;5.804;2023-02-07T08:24:22;9.70;;;6.20;;
20334;SDS011;10325;51.468;5.804;2023-02-07T08:26:49;10.17;;;6.50;;
20334;SDS011;10325;51.468;5.804;2023-02-07T08:29:19;11.40;;;6.00;;
20334;SDS011;10325;51.468;5.804;2023-02-07T08:31:51;11.37;;;6.30;;
20334;SDS011;10325;51.468;5.804;2023-02-07T08:34:19;11.07;;;5.67;;
20334;SDS011;10325;51.468;5.804;2023-02-07T08:36:53;11.00;;;6.13;;
20334;SDS011;10325;51.468;5.804;2023-02-07T08:39:26;9.30;;;5.80;;
20334;SDS011;10325;51.468;5.804;2023-02-07T08:41:55;10.83;;;6.87;;
20334;SDS011;10325;51.468;5.804;2023-02-07T08:44:22;9.23;;;6.00;;
20334;SDS011;10325;51.468;5.804;2023-02-07T08:46:55;8.70;;;5.97;;
20334;SDS011;10325;51.468;5.804;2023-02-07T08:49:26;8.77;;;5.77;;
20334;SDS011;10325;51.468;5.804;2023-02-07T08:51:59;9.20;;;5.70;;
20334;SDS011;10325;51.468;5.804;2023-02-07T08:54:28;9.47;;;5.70;;
20334;SDS011;10325;51.468;5.804;2023-02-07T08:56:58;8.13;;;6.00;;
20334;SDS011;10325;51.468;5.804;2023-02-07T08:59:29;8.20;;;6.03;;
20334;SDS011;10325;51.468;5.804;2023-02-07T09:01:58;8.90;;;6.17;;
20334;SDS011;10325;51.468;5.804;2023-02-07T09:04:29;8.53;;;6.13;;
20334;SDS011;10325;51.468;5.804;2023-02-07T09:06:57;7.07;;;5.77;;
20334;SDS011;10325;51.468;5.804;2023-02-07T09:09:30;10.73;;;6.00;;
20334;SDS011;10325;51.468;5.804;2023-02-07T09:12:02;8.27;;;5.80;;
20334;SDS011;10325;51.468;5.804;2023-02-07T09:14:33;7.63;;;5.53;;
20334;SDS011;10325;51.468;5.804;2023-02-07T09:17:01;7.33;;;5.93;;
20334;SDS011;10325;51.468;5.804;2023-02-07T09:19:32;9.47;;;6.00;;
20334;SDS011;10325;51.468;5.804;2023-02-07T09:22:08;10.10;;;5.73;;
20334;SDS011;10325;51.468;5.804;2023-02-07T09:24:38;6.80;;;5.43;;
20334;SDS011;10325;51.468;5.804;2023-02-07T09:27:10;8.00;;;5.17;;
20334;SDS011;10325;51.468;5.804;2023-02-07T09:29:40;9.80;;;5.50;;
20334;SDS011;10325;51.468;5.804;2023-02-07T09:32:09;7.30;;;4.97;;
20334;SDS011;10325;51.468;5.804;2023-02-07T09:34:40;7.00;;;5.80;;
20334;SDS011;10325;51.468;5.804;2023-02-07T09:37:09;6.97;;;5.20;;
20334;SDS011;10325;51.468;5.804;2023-02-07T09:39:39;9.73;;;5.83;;
20334;SDS011;10325;51.468;5.804;2023-02-07T09:42:16;8.03;;;5.77;;
20334;SDS011;10325;51.468;5.804;2023-02-07T09:45:07;6.57;;;5.60;;
20334;SDS011;10325;51.468;5.804;2023-02-07T09:47:44;7.67;;;6.57;;
20334;SDS011;10325;51.468;5.804;2023-02-07T09:53:15;8.73;;;5.93;;
20334;SDS011;10325;51.468;5.804;2023-02-07T09:56:00;7.77;;;5.93;;
20334;SDS011;10325;51.468;5.804;2023-02-07T09:58:43;6.83;;;5.30;;
20334;SDS011;10325;51.468;5.804;2023-02-07T10:01:23;7.23;;;5.50;;
20334;SDS011;10325;51.468;5.804;2023-02-07T10:06:55;6.70;;;5.63;;
20334;SDS011;10325;51.468;5.804;2023-02-07T10:09:31;8.13;;;5.57;;
20334;SDS011;10325;51.468;5.804;2023-02-07T10:20:36;8.20;;;6.50;;
20334;SDS011;10325;51.468;5.804;2023-02-07T10:31:21;6.53;;;5.03;;
20334;SDS011;10325;51.468;5.804;2023-02-07T10:34:41;6.00;;;5.00;;
20334;SDS011;10325;51.468;5.804;2023-02-07T10:36:43;7.17;;;5.47;;
20334;SDS011;10325;51.468;5.804;2023-02-07T10:39:20;7.83;;;5.90;;
20334;SDS011;10325;51.468;5.804;2023-02-07T10:41:53;6.13;;;5.13;;
20334;SDS011;10325;51.468;5.804;2023-02-07T10:44:25;6.07;;;4.90;;
20334;SDS011;10325;51.468;5.804;2023-02-07T10:47:00;7.10;;;4.87;;
20334;SDS011;10325;51.468;5.804;2023-02-07T10:49:33;6.50;;;4.90;;
20334;SDS011;10325;51.468;5.804;2023-02-07T10:52:24;6.03;;;4.67;;
20334;SDS011;10325;51.468;5.804;2023-02-07T10:55:05;5.40;;;4.27;;
20334;SDS011;10325;51.468;5.804;2023-02-07T10:57:53;6.40;;;4.60;;
20334;SDS011;10325;51.468;5.804;2023-02-07T11:00:31;5.17;;;4.37;;
20334;SDS011;10325;51.468;5.804;2023-02-07T11:03:06;5.93;;;5.07;;
20334;SDS011;10325;51.468;5.804;2023-02-07T11:06:03;5.13;;;4.60;;
20334;SDS011;10325;51.468;5.804;2023-02-07T11:08:32;4.70;;;4.20;;
20334;SDS011;10325;51.468;5.804;2023-02-07T11:11:23;5.60;;;4.43;;
20334;SDS011;10325;51.468;5.804;2023-02-07T11:14:01;6.33;;;4.30;;
20334;SDS011;10325;51.468;5.804;2023-02-07T11:16:34;5.03;;;3.53;;
20334;SDS011;10325;51.468;5.804;2023-02-07T11:19:04;5.50;;;4.77;;
20334;SDS011;10325;51.468;5.804;2023-02-07T11:21:39;4.87;;;4.20;;
20334;SDS011;10325;51.468;5.804;2023-02-07T11:24:25;5.00;;;3.90;;
20334;SDS011;10325;51.468;5.804;2023-02-07T11:27:18;4.73;;;3.80;;
20334;SDS011;10325;51.468;5.804;2023-02-07T11:29:54;4.87;;;3.70;;
20334;SDS011;10325;51.468;5.804;2023-02-07T11:32:26;3.97;;;3.40;;
20334;SDS011;10325;51.468;5.804;2023-02-07T11:34:58;4.87;;;3.30;;
20334;SDS011;10325;51.468;5.804;2023-02-07T11:37:36;4.13;;;3.40;;
20334;SDS011;10325;51.468;5.804;2023-02-07T11:42:58;4.97;;;3.60;;
20334;SDS011;10325;51.468;5.804;2023-02-07T11:45:26;5.40;;;3.67;;
20334;SDS011;10325;51.468;5.804;2023-02-07T11:47:58;4.90;;;3.73;;
20334;SDS011;10325;51.468;5.804;2023-02-07T11:50:28;3.80;;;3.30;;
20334;SDS011;10325;51.468;5.804;2023-02-07T11:53:29;3.83;;;3.10;;
20334;SDS011;10325;51.468;5.804;2023-02-07T11:56:03;3.73;;;3.13;;
20334;SDS011;10325;51.468;5.804;2023-02-07T11:58:34;3.43;;;3.13;;
20334;SDS011;10325;51.468;5.804;2023-02-07T12:01:21;3.60;;;3.30;;
20334;SDS011;10325;51.468;5.804;2023-02-07T12:03:57;3.70;;;3.13;;
20334;SDS011;10325;51.468;5.804;2023-02-07T12:06:38;3.40;;;3.10;;
20334;SDS011;10325;51.468;5.804;2023-02-07T12:09:11;3.23;;;2.87;;
20334;SDS011;10325;51.468;5.804;2023-02-07T12:11:41;3.90;;;2.70;;
20334;SDS011;10325;51.468;5.804;2023-02-07T12:15:00;3.43;;;3.10;;
20334;SDS011;10325;51.468;5.804;2023-02-07T12:17:11;3.20;;;2.63;;
20334;SDS011;10325;51.468;5.804;2023-02-07T12:19:52;3.50;;;2.57;;
20334;SDS011;10325;51.468;5.804;2023-02-07T12:22:31;3.37;;;3.03;;
20334;SDS011;10325;51.468;5.804;2023-02-07T12:25:15;3.53;;;3.23;;
20334;SDS011;10325;51.468;5.804;2023-02-07T12:28:03;3.73;;;2.50;;
20334;SDS011;10325;51.468;5.804;2023-02-07T12:30:43;3.27;;;2.50;;
20334;SDS011;10325;51.468;5.804;2023-02-07T12:33:29;3.00;;;2.43;;
20334;SDS011;10325;51.468;5.804;2023-02-07T12:36:08;3.07;;;2.77;;
20334;SDS011;10325;51.468;5.804;2023-02-07T12:41:13;3.47;;;2.77;;
20334;SDS011;10325;51.468;5.804;2023-02-07T12:43:47;3.10;;;2.80;;
20334;SDS011;10325;51.468;5.804;2023-02-07T12:52:24;2.97;;;2.20;;
20334;SDS011;10325;51.468;5.804;2023-02-07T13:00:26;2.70;;;2.50;;
20334;SDS011;10325;51.468;5.804;2023-02-07T13:19:38;2.50;;;2.30;;
20334;SDS011;10325;51.468;5.804;2023-02-07T13:22:27;3.17;;;2.73;;
20334;SDS011;10325;51.468;5.804;2023-02-07T13:25:00;2.47;;;2.27;;
20334;SDS011;10325;51.468;5.804;2023-02-07T13:27:43;2.10;;;1.83;;
20334;SDS011;10325;51.468;5.804;2023-02-07T13:30:19;2.60;;;2.40;;
20334;SDS011;10325;51.468;5.804;2023-02-07T13:32:48;2.60;;;2.10;;
20334;SDS011;10325;51.468;5.804;2023-02-07T13:35:22;2.20;;;2.00;;
20334;SDS011;10325;51.468;5.804;2023-02-07T13:43:26;2.63;;;2.33;;
20334;SDS011;10325;51.468;5.804;2023-02-07T13:51:38;2.33;;;1.90;;
20334;SDS011;10325;51.468;5.804;2023-02-07T13:56:56;2.60;;;2.10;;
20334;SDS011;10325;51.468;5.804;2023-02-07T14:00:28;2.37;;;2.17;;
20334;SDS011;10325;51.468;5.804;2023-02-07T14:02:40;2.50;;;2.17;;
20334;SDS011;10325;51.468;5.804;2023-02-07T14:05:29;2.70;;;2.50;;
20334;SDS011;10325;51.468;5.804;2023-02-07T14:08:04;1.90;;;1.80;;
20334;SDS011;10325;51.468;5.804;2023-02-07T14:10:44;2.30;;;1.90;;
20334;SDS011;10325;51.468;5.804;2023-02-07T14:16:41;2.00;;;1.80;;
20334;SDS011;10325;51.468;5.804;2023-02-07T14:18:51;2.07;;;1.87;;
20334;SDS011;10325;51.468;5.804;2023-02-07T14:21:29;2.70;;;2.30;;
20334;SDS011;10325;51.468;5.804;2023-02-07T14:31:53;2.40;;;2.20;;
20334;SDS011;10325;51.468;5.804;2023-02-07T14:34:30;3.37;;;2.07;;
20334;SDS011;10325;51.468;5.804;2023-02-07T14:36:59;2.43;;;2.17;;
20334;SDS011;10325;51.468;5.804;2023-02-07T14:39:49;2.13;;;1.93;;
20334;SDS011;10325;51.468;5.804;2023-02-07T14:42:19;2.00;;;1.80;;
20334;SDS011;10325;51.468;5.804;2023-02-07T14:44:50;2.47;;;2.27;;
20334;SDS011;10325;51.468;5.804;2023-02-07T14:47:30;2.17;;;1.97;;
20334;SDS011;10325;51.468;5.804;2023-02-07T14:50:01;1.80;;;1.70;;
20334;SDS011;10325;51.468;5.804;2023-02-07T14:52:35;2.27;;;2.07;;
20334;SDS011;10325;51.468;5.804;2023-02-07T14:55:07;2.47;;;1.80;;
20334;SDS011;10325;51.468;5.804;2023-02-07T14:57:58;2.07;;;1.90;;
20334;SDS011;10325;51.468;5.804;2023-02-07T15:00:41;2.37;;;1.80;;
20334;SDS011;10325;51.468;5.804;2023-02-07T15:03:16;2.10;;;1.90;;
20334;SDS011;10325;51.468;5.804;2023-02-07T15:05:51;1.87;;;1.77;;
20334;SDS011;10325;51.468;5.804;2023-02-07T15:08:26;2.00;;;1.80;;
20334;SDS011;10325;51.468;5.804;2023-02-07T15:11:00;2.00;;;1.90;;
20334;SDS011;10325;51.468;5.804;2023-02-07T15:13:34;2.43;;;2.23;;
20334;SDS011;10325;51.468;5.804;2023-02-07T15:16:11;2.57;;;2.37;;
20334;SDS011;10325;51.468;5.804;2023-02-07T15:18:45;2.17;;;1.93;;
20334;SDS011;10325;51.468;5.804;2023-02-07T15:21:21;2.17;;;1.97;;
20334;SDS011;10325;51.468;5.804;2023-02-07T15:24:04;2.20;;;2.00;;
20334;SDS011;10325;51.468;5.804;2023-02-07T15:26:34;2.63;;;2.40;;
20334;SDS011;10325;51.468;5.804;2023-02-07T15:29:04;2.10;;;1.93;;
20334;SDS011;10325;51.468;5.804;2023-02-07T15:31:38;2.43;;;2.23;;
20334;SDS011;10325;51.468;5.804;2023-02-07T15:34:11;2.67;;;1.70;;
20334;SDS011;10325;51.468;5.804;2023-02-07T15:36:44;2.00;;;1.80;;
20334;SDS011;10325;51.468;5.804;2023-02-07T15:39:20;2.60;;;2.00;;
20334;SDS011;10325;51.468;5.804;2023-02-07T15:41:52;1.83;;;1.73;;
20334;SDS011;10325;51.468;5.804;2023-02-07T15:44:30;2.07;;;1.87;;
20334;SDS011;10325;51.468;5.804;2023-02-07T15:47:01;2.40;;;2.20;;
20334;SDS011;10325;51.468;5.804;2023-02-07T15:49:37;2.00;;;1.80;;
20334;SDS011;10325;51.468;5.804;2023-02-07T15:52:13;2.03;;;1.80;;
20334;SDS011;10325;51.468;5.804;2023-02-07T15:54:46;2.20;;;2.00;;
20334;SDS011;10325;51.468;5.804;2023-02-07T15:57:20;2.50;;;1.87;;
20334;SDS011;10325;51.468;5.804;2023-02-07T15:59:59;2.37;;;2.13;;
20334;SDS011;10325;51.468;5.804;2023-02-07T16:02:30;1.97;;;1.77;;
20334;SDS011;10325;51.468;5.804;2023-02-07T16:05:19;2.47;;;2.27;;
20334;SDS011;10325;51.468;5.804;2023-02-07T16:07:51;1.90;;;1.73;;
20334;SDS011;10325;51.468;5.804;2023-02-07T16:13:08;2.00;;;1.87;;
20334;SDS011;10325;51.468;5.804;2023-02-07T16:16:28;4.60;;;1.83;;
20334;SDS011;10325;51.468;5.804;2023-02-07T16:21:02;2.00;;;1.80;;
20334;SDS011;10325;51.468;5.804;2023-02-07T16:23:34;2.10;;;1.90;;
20334;SDS011;10325;51.468;5.804;2023-02-07T16:26:04;2.00;;;1.70;;
20334;SDS011;10325;51.468;5.804;2023-02-07T16:28:34;2.27;;;1.90;;
20334;SDS011;10325;51.468;5.804;2023-02-07T16:31:04;2.50;;;2.30;;
20334;SDS011;10325;51.468;5.804;2023-02-07T16:33:37;3.10;;;2.30;;
20334;SDS011;10325;51.468;5.804;2023-02-07T16:36:12;2.03;;;1.70;;
20334;SDS011;10325;51.468;5.804;2023-02-07T16:38:42;1.97;;;1.73;;
20334;SDS011;10325;51.468;5.804;2023-02-07T16:41:24;4.10;;;1.77;;
20334;SDS011;10325;51.468;5.804;2023-02-07T16:44:04;2.70;;;1.80;;
20334;SDS011;10325;51.468;5.804;2023-02-07T16:46:35;2.30;;;1.90;;
20334;SDS011;10325;51.468;5.804;2023-02-07T16:49:13;2.20;;;2.00;;
20334;SDS011;10325;51.468;5.804;2023-02-07T16:51:51;3.13;;;2.17;;
20334;SDS011;10325;51.468;5.804;2023-02-07T16:54:20;2.10;;;1.90;;
20334;SDS011;10325;51.468;5.804;2023-02-07T16:56:52;1.87;;;1.77;;
20334;SDS011;10325;51.468;5.804;2023-02-07T16:59:30;2.50;;;2.00;;
20334;SDS011;10325;51.468;5.804;2023-02-07T17:02:04;2.43;;;1.90;;
20334;SDS011;10325;51.468;5.804;2023-02-07T17:04:41;3.27;;;1.90;;
20334;SDS011;10325;51.468;5.804;2023-02-07T17:07:11;2.40;;;1.60;;
20334;SDS011;10325;51.468;5.804;2023-02-07T17:09:43;2.50;;;1.83;;
20334;SDS011;10325;51.468;5.804;2023-02-07T17:12:16;3.23;;;1.80;;
20334;SDS011;10325;51.468;5.804;2023-02-07T17:14:46;2.30;;;2.10;;
20334;SDS011;10325;51.468;5.804;2023-02-07T17:17:20;1.83;;;1.67;;
20334;SDS011;10325;51.468;5.804;2023-02-07T17:19:51;2.40;;;2.00;;
20334;SDS011;10325;51.468;5.804;2023-02-07T17:22:24;2.07;;;1.80;;
20334;SDS011;10325;51.468;5.804;2023-02-07T17:24:54;2.17;;;1.97;;
20334;SDS011;10325;51.468;5.804;2023-02-07T17:27:26;2.67;;;2.00;;
20334;SDS011;10325;51.468;5.804;2023-02-07T17:29:59;2.27;;;1.60;;
20334;SDS011;10325;51.468;5.804;2023-02-07T17:32:29;2.20;;;1.90;;
20334;SDS011;10325;51.468;5.804;2023-02-07T17:34:59;2.50;;;2.10;;
20334;SDS011;10325;51.468;5.804;2023-02-07T17:37:31;3.67;;;2.00;;
20334;SDS011;10325;51.468;5.804;2023-02-07T17:40:04;2.67;;;2.10;;